sensor_id;sensor_type;location;lat;lon;timestamp;temperature;humidity
39957;DHT22;48483;44.640;7.494;2023-12-20T00:01:38;6.60;99.90
39957;DHT22;48483;44.640;7.494;2023-12-20T00:04:06;6.60;99.90
39957;DHT22;48483;44.640;7.494;2023-12-20T00:06:33;6.70;99.90
39957;DHT22;48483;44.640;7.494;2023-12-20T00:08:59;6.70;99.90
39957;DHT22;48483;44.640;7.494;2023-12-20T00:11:26;6.70;99.90
39957;DHT22;48483;44.640;7.494;2023-12-20T00:13:54;6.70;99.90
39957;DHT22;48483;44.640;7.494;2023-12-20T00:16:21;6.80;99.90
39957;DHT22;48483;44.640;7.494;2023-12-20T00:18:47;6.90;99.90
39957;DHT22;48483;44.640;7.494;2023-12-20T00:21:14;6.90;99.90
39957;DHT22;48483;44.640;7.494;2023-12-20T00:23:41;6.90;99.90
39957;DHT22;48483;44.640;7.494;2023-12-20T00:26:07;7.00;99.90
39957;DHT22;48483;44.640;7.494;2023-12-20T00:28:34;7.00;99.90
39957;DHT22;48483;44.640;7.494;2023-12-20T00:31:02;6.90;99.90
39957;DHT22;48483;44.640;7.494;2023-12-20T00:33:29;6.80;99.90
39957;DHT22;48483;44.640;7.494;2023-12-20T00:35:56;6.70;99.90
39957;DHT22;48483;44.640;7.494;2023-12-20T00:38:22;6.70;99.90
39957;DHT22;48483;44.640;7.494;2023-12-20T00:40:49;6.70;99.90
39957;DHT22;48483;44.640;7.494;2023-12-20T00:43:16;6.70;99.90
39957;DHT22;48483;44.640;7.494;2023-12-20T00:45:43;6.80;99.90
39957;DHT22;48483;44.640;7.494;2023-12-20T00:48:10;6.80;99.90
39957;DHT22;48483;44.640;7.494;2023-12-20T00:50:38;6.90;99.90
39957;DHT22;48483;44.640;7.494;2023-12-20T00:53:04;6.90;99.90
39957;DHT22;48483;44.640;7.494;2023-12-20T00:55:32;6.90;99.90
39957;DHT22;48483;44.640;7.494;2023-12-20T00:57:58;6.80;99.90
39957;DHT22;48483;44.640;7.494;2023-12-20T01:00:26;6.60;99.90
39957;DHT22;48483;44.640;7.494;2023-12-20T01:02:53;6.60;99.90
39957;DHT22;48483;44.640;7.494;2023-12-20T01:05:21;6.60;99.90
39957;DHT22;48483;44.640;7.494;2023-12-20T01:07:49;6.70;99.90
39957;DHT22;48483;44.640;7.494;2023-12-20T01:10:16;6.70;99.90
39957;DHT22;48483;44.640;7.494;2023-12-20T01:12:43;6.70;99.90
39957;DHT22;48483;44.640;7.494;2023-12-20T01:15:10;6.70;99.90
39957;DHT22;48483;44.640;7.494;2023-12-20T01:17:37;6.70;99.90
39957;DHT22;48483;44.640;7.494;2023-12-20T01:20:05;6.70;99.90
39957;DHT22;48483;44.640;7.494;2023-12-20T01:22:33;6.70;99.90
39957;DHT22;48483;44.640;7.494;2023-12-20T01:25:02;6.60;99.90
39957;DHT22;48483;44.640;7.494;2023-12-20T01:27:29;6.60;99.90
39957;DHT22;48483;44.640;7.494;2023-12-20T01:29:57;6.50;99.90
39957;DHT22;48483;44.640;7.494;2023-12-20T01:32:24;6.50;99.90
39957;DHT22;48483;44.640;7.494;2023-12-20T01:34:50;6.60;99.90
39957;DHT22;48483;44.640;7.494;2023-12-20T01:37:17;6.50;99.90
39957;DHT22;48483;44.640;7.494;2023-12-20T01:39:45;6.50;99.90
39957;DHT22;48483;44.640;7.494;2023-12-20T01:42:12;6.50;99.90
39957;DHT22;48483;44.640;7.494;2023-12-20T01:44:39;6.40;99.90
39957;DHT22;48483;44.640;7.494;2023-12-20T01:47:05;6.40;99.90
39957;DHT22;48483;44.640;7.494;2023-12-20T01:49:32;6.30;99.90
39957;DHT22;48483;44.640;7.494;2023-12-20T01:51:59;6.30;99.90
39957;DHT22;48483;44.640;7.494;2023-12-20T01:54:26;6.30;99.90
39957;DHT22;48483;44.640;7.494;2023-12-20T01:56:54;6.30;99.90
39957;DHT22;48483;44.640;7.494;2023-12-20T01:59:21;6.40;99.90
39957;DHT22;48483;44.640;7.494;2023-12-20T02:01:48;6.30;99.90
39957;DHT22;48483;44.640;7.494;2023-12-20T02:04:15;6.30;99.90
39957;DHT22;48483;44.640;7.494;2023-12-20T02:06:42;6.30;99.90
39957;DHT22;48483;44.640;7.494;2023-12-20T02:09:10;6.30;99.90
39957;DHT22;48483;44.640;7.494;2023-12-20T02:11:36;6.30;99.90
39957;DHT22;48483;44.640;7.494;2023-12-20T02:14:05;6.30;99.90
39957;DHT22;48483;44.640;7.494;2023-12-20T02:16:32;6.30;99.90
39957;DHT22;48483;44.640;7.494;2023-12-20T02:18:59;6.30;99.90
39957;DHT22;48483;44.640;7.494;2023-12-20T02:21:32;6.30;99.90
39957;DHT22;48483;44.640;7.494;2023-12-20T02:24:00;6.30;99.90
39957;DHT22;48483;44.640;7.494;2023-12-20T02:26:26;6.40;99.90
39957;DHT22;48483;44.640;7.494;2023-12-20T02:28:54;6.30;99.90
39957;DHT22;48483;44.640;7.494;2023-12-20T02:31:21;6.30;99.90
39957;DHT22;48483;44.640;7.494;2023-12-20T02:33:48;6.20;99.90
39957;DHT22;48483;44.640;7.494;2023-12-20T02:36:15;6.20;99.90
39957;DHT22;48483;44.640;7.494;2023-12-20T02:38:43;6.30;99.90
39957;DHT22;48483;44.640;7.494;2023-12-20T02:41:10;6.40;99.90
39957;DHT22;48483;44.640;7.494;2023-12-20T02:43:36;6.50;99.90
39957;DHT22;48483;44.640;7.494;2023-12-20T02:46:03;6.50;99.90
39957;DHT22;48483;44.640;7.494;2023-12-20T02:48:30;6.50;99.90
39957;DHT22;48483;44.640;7.494;2023-12-20T02:50:56;6.40;99.90
39957;DHT22;48483;44.640;7.494;2023-12-20T02:53:23;6.40;99.90
39957;DHT22;48483;44.640;7.494;2023-12-20T02:55:51;6.50;99.90
39957;DHT22;48483;44.640;7.494;2023-12-20T02:58:18;6.50;99.90
39957;DHT22;48483;44.640;7.494;2023-12-20T03:00:44;6.40;99.90
39957;DHT22;48483;44.640;7.494;2023-12-20T03:03:11;6.40;99.90
39957;DHT22;48483;44.640;7.494;2023-12-20T03:05:38;6.30;99.90
39957;DHT22;48483;44.640;7.494;2023-12-20T03:08:05;6.30;99.90
39957;DHT22;48483;44.640;7.494;2023-12-20T03:10:32;6.30;99.90
39957;DHT22;48483;44.640;7.494;2023-12-20T03:13:00;6.30;99.90
39957;DHT22;48483;44.640;7.494;2023-12-20T03:15:26;6.30;99.90
39957;DHT22;48483;44.640;7.494;2023-12-20T03:17:53;6.20;99.90
39957;DHT22;48483;44.640;7.494;2023-12-20T03:20:20;6.20;99.90
39957;DHT22;48483;44.640;7.494;2023-12-20T03:22:46;6.20;99.90
39957;DHT22;48483;44.640;7.494;2023-12-20T03:25:13;6.20;99.90
39957;DHT22;48483;44.640;7.494;2023-12-20T03:27:40;6.20;99.90
39957;DHT22;48483;44.640;7.494;2023-12-20T03:30:09;6.10;99.90
39957;DHT22;48483;44.640;7.494;2023-12-20T03:32:36;6.10;99.90
39957;DHT22;48483;44.640;7.494;2023-12-20T03:35:04;6.10;99.90
39957;DHT22;48483;44.640;7.494;2023-12-20T03:37:31;6.20;99.90
39957;DHT22;48483;44.640;7.494;2023-12-20T03:39:58;6.10;99.90
39957;DHT22;48483;44.640;7.494;2023-12-20T03:42:24;6.10;99.90
39957;DHT22;48483;44.640;7.494;2023-12-20T03:44:51;6.00;99.90
39957;DHT22;48483;44.640;7.494;2023-12-20T03:47:19;6.00;99.90
39957;DHT22;48483;44.640;7.494;2023-12-20T03:49:45;6.00;99.90
39957;DHT22;48483;44.640;7.494;2023-12-20T03:52:12;6.00;99.90
39957;DHT22;48483;44.640;7.494;2023-12-20T03:54:39;6.10;99.90
39957;DHT22;48483;44.640;7.494;2023-12-20T03:57:06;6.10;99.90
39957;DHT22;48483;44.640;7.494;2023-12-20T03:59:35;6.10;99.90
39957;DHT22;48483;44.640;7.494;2023-12-20T04:02:02;6.00;99.90
39957;DHT22;48483;44.640;7.494;2023-12-20T04:04:30;6.00;99.90
39957;DHT22;48483;44.640;7.494;2023-12-20T04:06:57;6.00;99.90
39957;DHT22;48483;44.640;7.494;2023-12-20T04:09:24;6.00;99.90
39957;DHT22;48483;44.640;7.494;2023-12-20T04:11:51;6.00;99.90
39957;DHT22;48483;44.640;7.494;2023-12-20T04:14:17;5.90;99.90
39957;DHT22;48483;44.640;7.494;2023-12-20T04:16:44;5.90;99.90
39957;DHT22;48483;44.640;7.494;2023-12-20T04:19:10;6.00;99.90
39957;DHT22;48483;44.640;7.494;2023-12-20T04:21:38;6.10;99.90
39957;DHT22;48483;44.640;7.494;2023-12-20T04:24:06;6.10;99.90
39957;DHT22;48483;44.640;7.494;2023-12-20T04:26:32;6.20;99.90
39957;DHT22;48483;44.640;7.494;2023-12-20T04:28:59;6.30;99.90
39957;DHT22;48483;44.640;7.494;2023-12-20T04:31:25;6.20;99.90
39957;DHT22;48483;44.640;7.494;2023-12-20T04:33:52;6.20;99.90
39957;DHT22;48483;44.640;7.494;2023-12-20T04:36:19;6.20;99.90
39957;DHT22;48483;44.640;7.494;2023-12-20T04:38:47;6.20;99.90
39957;DHT22;48483;44.640;7.494;2023-12-20T04:41:13;6.20;99.90
39957;DHT22;48483;44.640;7.494;2023-12-20T04:43:45;6.10;99.90
39957;DHT22;48483;44.640;7.494;2023-12-20T04:46:12;6.10;99.90
39957;DHT22;48483;44.640;7.494;2023-12-20T04:48:38;6.10;99.90
39957;DHT22;48483;44.640;7.494;2023-12-20T04:51:05;6.20;99.90
39957;DHT22;48483;44.640;7.494;2023-12-20T04:53:32;6.30;99.90
39957;DHT22;48483;44.640;7.494;2023-12-20T04:56:00;6.40;99.90
39957;DHT22;48483;44.640;7.494;2023-12-20T04:58:27;6.40;99.90
39957;DHT22;48483;44.640;7.494;2023-12-20T05:00:53;6.50;99.90
39957;DHT22;48483;44.640;7.494;2023-12-20T05:03:20;6.40;99.90
39957;DHT22;48483;44.640;7.494;2023-12-20T05:05:47;6.40;99.90
39957;DHT22;48483;44.640;7.494;2023-12-20T05:08:33;6.40;99.90
39957;DHT22;48483;44.640;7.494;2023-12-20T05:11:01;6.40;99.90
39957;DHT22;48483;44.640;7.494;2023-12-20T05:13:27;6.40;99.90
39957;DHT22;48483;44.640;7.494;2023-12-20T05:15:54;6.40;99.90
39957;DHT22;48483;44.640;7.494;2023-12-20T05:18:21;6.40;99.90
39957;DHT22;48483;44.640;7.494;2023-12-20T05:20:48;6.40;99.90
39957;DHT22;48483;44.640;7.494;2023-12-20T05:23:15;6.40;99.90
39957;DHT22;48483;44.640;7.494;2023-12-20T05:25:41;6.40;99.90
39957;DHT22;48483;44.640;7.494;2023-12-20T05:28:09;6.40;99.90
39957;DHT22;48483;44.640;7.494;2023-12-20T05:30:36;6.40;99.90
39957;DHT22;48483;44.640;7.494;2023-12-20T05:33:03;6.40;99.90
39957;DHT22;48483;44.640;7.494;2023-12-20T05:35:29;6.40;99.90
39957;DHT22;48483;44.640;7.494;2023-12-20T05:37:56;6.40;99.90
39957;DHT22;48483;44.640;7.494;2023-12-20T05:40:23;6.50;99.90
39957;DHT22;48483;44.640;7.494;2023-12-20T05:42:50;6.50;99.90
39957;DHT22;48483;44.640;7.494;2023-12-20T05:45:18;6.40;99.90
39957;DHT22;48483;44.640;7.494;2023-12-20T05:47:44;6.40;99.90
39957;DHT22;48483;44.640;7.494;2023-12-20T05:50:11;6.40;99.90
39957;DHT22;48483;44.640;7.494;2023-12-20T05:52:38;6.40;99.90
39957;DHT22;48483;44.640;7.494;2023-12-20T05:55:05;6.40;99.90
39957;DHT22;48483;44.640;7.494;2023-12-20T05:57:31;6.40;99.90
39957;DHT22;48483;44.640;7.494;2023-12-20T05:59:58;6.40;99.90
39957;DHT22;48483;44.640;7.494;2023-12-20T06:02:26;6.40;99.90
39957;DHT22;48483;44.640;7.494;2023-12-20T06:04:53;6.30;99.90
39957;DHT22;48483;44.640;7.494;2023-12-20T06:07:20;6.40;99.90
39957;DHT22;48483;44.640;7.494;2023-12-20T06:09:47;6.40;99.90
39957;DHT22;48483;44.640;7.494;2023-12-20T06:12:13;6.40;99.90
39957;DHT22;48483;44.640;7.494;2023-12-20T06:14:40;6.50;99.90
39957;DHT22;48483;44.640;7.494;2023-12-20T06:17:07;6.50;99.90
39957;DHT22;48483;44.640;7.494;2023-12-20T06:19:35;6.60;99.90
39957;DHT22;48483;44.640;7.494;2023-12-20T06:22:02;6.60;99.90
39957;DHT22;48483;44.640;7.494;2023-12-20T06:24:28;6.70;99.90
39957;DHT22;48483;44.640;7.494;2023-12-20T06:26:56;6.70;99.90
39957;DHT22;48483;44.640;7.494;2023-12-20T06:29:23;6.70;99.90
39957;DHT22;48483;44.640;7.494;2023-12-20T06:31:49;6.70;99.90
39957;DHT22;48483;44.640;7.494;2023-12-20T06:34:16;6.70;99.90
39957;DHT22;48483;44.640;7.494;2023-12-20T06:36:44;6.70;99.90
39957;DHT22;48483;44.640;7.494;2023-12-20T06:39:11;6.70;99.90
39957;DHT22;48483;44.640;7.494;2023-12-20T06:41:38;6.70;99.90
39957;DHT22;48483;44.640;7.494;2023-12-20T06:44:05;6.70;99.90
39957;DHT22;48483;44.640;7.494;2023-12-20T06:46:32;6.60;99.90
39957;DHT22;48483;44.640;7.494;2023-12-20T06:48:59;6.60;99.90
39957;DHT22;48483;44.640;7.494;2023-12-20T06:51:25;6.60;99.90
39957;DHT22;48483;44.640;7.494;2023-12-20T06:53:53;6.60;99.90
39957;DHT22;48483;44.640;7.494;2023-12-20T06:56:20;6.70;99.90
39957;DHT22;48483;44.640;7.494;2023-12-20T06:58:47;6.70;99.90
39957;DHT22;48483;44.640;7.494;2023-12-20T07:01:14;6.70;99.90
39957;DHT22;48483;44.640;7.494;2023-12-20T07:03:41;6.70;99.90
39957;DHT22;48483;44.640;7.494;2023-12-20T07:06:08;6.70;99.90
39957;DHT22;48483;44.640;7.494;2023-12-20T07:08:35;6.70;99.90
39957;DHT22;48483;44.640;7.494;2023-12-20T07:11:03;6.70;99.90
39957;DHT22;48483;44.640;7.494;2023-12-20T07:13:30;6.70;99.90
39957;DHT22;48483;44.640;7.494;2023-12-20T07:15:57;6.70;99.90
39957;DHT22;48483;44.640;7.494;2023-12-20T07:18:23;6.70;99.90
39957;DHT22;48483;44.640;7.494;2023-12-20T07:20:50;6.70;99.90
39957;DHT22;48483;44.640;7.494;2023-12-20T07:23:17;6.70;99.90
39957;DHT22;48483;44.640;7.494;2023-12-20T07:25:43;6.70;99.90
39957;DHT22;48483;44.640;7.494;2023-12-20T07:28:11;6.80;99.90
39957;DHT22;48483;44.640;7.494;2023-12-20T07:30:38;6.80;99.90
39957;DHT22;48483;44.640;7.494;2023-12-20T07:33:05;6.80;99.90
39957;DHT22;48483;44.640;7.494;2023-12-20T07:35:34;6.80;99.90
39957;DHT22;48483;44.640;7.494;2023-12-20T07:38:01;6.80;99.90
39957;DHT22;48483;44.640;7.494;2023-12-20T07:40:28;6.90;99.90
39957;DHT22;48483;44.640;7.494;2023-12-20T07:42:55;6.90;99.90
39957;DHT22;48483;44.640;7.494;2023-12-20T07:45:23;7.00;99.90
39957;DHT22;48483;44.640;7.494;2023-12-20T07:47:50;7.00;99.90
39957;DHT22;48483;44.640;7.494;2023-12-20T07:50:16;7.00;99.90
39957;DHT22;48483;44.640;7.494;2023-12-20T07:52:43;7.10;99.90
39957;DHT22;48483;44.640;7.494;2023-12-20T07:55:10;7.10;99.90
39957;DHT22;48483;44.640;7.494;2023-12-20T07:57:36;7.00;99.90
39957;DHT22;48483;44.640;7.494;2023-12-20T08:00:04;7.00;99.90
39957;DHT22;48483;44.640;7.494;2023-12-20T08:02:33;7.00;99.90
39957;DHT22;48483;44.640;7.494;2023-12-20T08:04:59;7.00;99.90
39957;DHT22;48483;44.640;7.494;2023-12-20T08:07:26;7.00;99.90
39957;DHT22;48483;44.640;7.494;2023-12-20T08:09:53;7.00;99.90
39957;DHT22;48483;44.640;7.494;2023-12-20T08:12:21;6.90;99.90
39957;DHT22;48483;44.640;7.494;2023-12-20T08:14:47;6.90;99.90
39957;DHT22;48483;44.640;7.494;2023-12-20T08:17:14;6.90;99.90
39957;DHT22;48483;44.640;7.494;2023-12-20T08:19:44;6.90;99.90
39957;DHT22;48483;44.640;7.494;2023-12-20T08:22:11;6.90;99.90
39957;DHT22;48483;44.640;7.494;2023-12-20T08:24:38;6.90;99.90
39957;DHT22;48483;44.640;7.494;2023-12-20T08:27:04;7.00;99.90
39957;DHT22;48483;44.640;7.494;2023-12-20T08:29:31;7.00;99.90
39957;DHT22;48483;44.640;7.494;2023-12-20T08:31:58;7.00;99.90
39957;DHT22;48483;44.640;7.494;2023-12-20T08:34:25;7.00;99.90
39957;DHT22;48483;44.640;7.494;2023-12-20T08:36:53;7.10;99.90
39957;DHT22;48483;44.640;7.494;2023-12-20T08:39:20;7.10;99.90
39957;DHT22;48483;44.640;7.494;2023-12-20T08:41:47;7.20;99.90
39957;DHT22;48483;44.640;7.494;2023-12-20T08:44:13;7.20;99.90
39957;DHT22;48483;44.640;7.494;2023-12-20T08:46:40;7.20;99.90
39957;DHT22;48483;44.640;7.494;2023-12-20T08:49:07;7.20;99.90
39957;DHT22;48483;44.640;7.494;2023-12-20T08:51:35;7.30;99.90
39957;DHT22;48483;44.640;7.494;2023-12-20T08:54:03;7.30;99.90
39957;DHT22;48483;44.640;7.494;2023-12-20T08:56:34;7.30;99.90
39957;DHT22;48483;44.640;7.494;2023-12-20T08:59:00;7.30;99.90
39957;DHT22;48483;44.640;7.494;2023-12-20T09:01:27;7.30;99.90
39957;DHT22;48483;44.640;7.494;2023-12-20T09:03:54;7.30;99.90
39957;DHT22;48483;44.640;7.494;2023-12-20T09:06:20;7.30;99.90
39957;DHT22;48483;44.640;7.494;2023-12-20T09:08:47;7.30;99.90
39957;DHT22;48483;44.640;7.494;2023-12-20T09:11:15;7.40;99.90
39957;DHT22;48483;44.640;7.494;2023-12-20T09:13:44;7.40;99.90
39957;DHT22;48483;44.640;7.494;2023-12-20T09:16:11;7.40;99.90
39957;DHT22;48483;44.640;7.494;2023-12-20T09:18:39;7.50;99.90
39957;DHT22;48483;44.640;7.494;2023-12-20T09:21:06;7.50;99.90
39957;DHT22;48483;44.640;7.494;2023-12-20T09:23:32;7.50;99.90
39957;DHT22;48483;44.640;7.494;2023-12-20T09:25:59;7.50;99.90
39957;DHT22;48483;44.640;7.494;2023-12-20T09:28:27;7.50;99.90
39957;DHT22;48483;44.640;7.494;2023-12-20T09:30:54;7.50;99.90
39957;DHT22;48483;44.640;7.494;2023-12-20T09:33:20;7.60;99.90
39957;DHT22;48483;44.640;7.494;2023-12-20T09:35:47;7.60;99.90
39957;DHT22;48483;44.640;7.494;2023-12-20T09:38:14;7.70;99.90
39957;DHT22;48483;44.640;7.494;2023-12-20T09:40:42;7.70;99.90
39957;DHT22;48483;44.640;7.494;2023-12-20T09:43:11;7.70;99.90
39957;DHT22;48483;44.640;7.494;2023-12-20T09:45:42;7.70;99.90
39957;DHT22;48483;44.640;7.494;2023-12-20T09:48:12;7.80;99.90
39957;DHT22;48483;44.640;7.494;2023-12-20T09:50:39;7.80;99.90
39957;DHT22;48483;44.640;7.494;2023-12-20T09:53:08;7.80;99.90
39957;DHT22;48483;44.640;7.494;2023-12-20T09:55:36;7.90;99.90
39957;DHT22;48483;44.640;7.494;2023-12-20T09:58:03;7.90;99.90
39957;DHT22;48483;44.640;7.494;2023-12-20T10:00:30;7.90;99.90
39957;DHT22;48483;44.640;7.494;2023-12-20T10:02:59;7.90;99.90
39957;DHT22;48483;44.640;7.494;2023-12-20T10:05:27;8.00;99.90
39957;DHT22;48483;44.640;7.494;2023-12-20T10:07:54;8.10;99.90
39957;DHT22;48483;44.640;7.494;2023-12-20T10:10:21;8.10;99.90
39957;DHT22;48483;44.640;7.494;2023-12-20T10:13:02;8.20;99.90
39957;DHT22;48483;44.640;7.494;2023-12-20T10:15:28;8.20;99.90
39957;DHT22;48483;44.640;7.494;2023-12-20T10:17:55;8.20;99.90
39957;DHT22;48483;44.640;7.494;2023-12-20T10:20:24;8.20;99.90
39957;DHT22;48483;44.640;7.494;2023-12-20T10:22:51;8.30;99.90
39957;DHT22;48483;44.640;7.494;2023-12-20T10:25:20;8.30;99.90
39957;DHT22;48483;44.640;7.494;2023-12-20T10:27:47;8.30;99.90
39957;DHT22;48483;44.640;7.494;2023-12-20T10:30:14;8.40;99.90
39957;DHT22;48483;44.640;7.494;2023-12-20T10:32:41;8.40;99.90
39957;DHT22;48483;44.640;7.494;2023-12-20T10:35:09;8.40;99.90
39957;DHT22;48483;44.640;7.494;2023-12-20T10:37:37;8.40;99.90
39957;DHT22;48483;44.640;7.494;2023-12-20T10:40:05;8.40;99.90
39957;DHT22;48483;44.640;7.494;2023-12-20T10:42:32;8.50;99.90
39957;DHT22;48483;44.640;7.494;2023-12-20T10:45:00;8.50;99.90
39957;DHT22;48483;44.640;7.494;2023-12-20T10:47:28;8.60;99.90
39957;DHT22;48483;44.640;7.494;2023-12-20T10:49:59;8.60;99.90
39957;DHT22;48483;44.640;7.494;2023-12-20T10:52:26;8.60;99.90
39957;DHT22;48483;44.640;7.494;2023-12-20T10:54:55;8.70;99.90
39957;DHT22;48483;44.640;7.494;2023-12-20T10:57:22;8.80;99.90
39957;DHT22;48483;44.640;7.494;2023-12-20T10:59:54;8.80;99.90
39957;DHT22;48483;44.640;7.494;2023-12-20T11:02:22;8.90;99.90
39957;DHT22;48483;44.640;7.494;2023-12-20T11:04:53;8.90;99.90
39957;DHT22;48483;44.640;7.494;2023-12-20T11:07:23;9.00;99.90
39957;DHT22;48483;44.640;7.494;2023-12-20T11:09:56;9.00;99.90
39957;DHT22;48483;44.640;7.494;2023-12-20T11:12:34;9.00;99.90
39957;DHT22;48483;44.640;7.494;2023-12-20T11:15:03;9.00;99.90
39957;DHT22;48483;44.640;7.494;2023-12-20T11:17:32;9.10;99.90
39957;DHT22;48483;44.640;7.494;2023-12-20T11:20:09;9.10;99.90
39957;DHT22;48483;44.640;7.494;2023-12-20T11:22:38;9.20;99.90
39957;DHT22;48483;44.640;7.494;2023-12-20T11:25:10;9.30;99.90
39957;DHT22;48483;44.640;7.494;2023-12-20T11:27:41;9.30;99.90
39957;DHT22;48483;44.640;7.494;2023-12-20T11:30:10;9.40;99.90
39957;DHT22;48483;44.640;7.494;2023-12-20T11:32:37;9.40;99.90
39957;DHT22;48483;44.640;7.494;2023-12-20T11:35:18;9.40;99.90
39957;DHT22;48483;44.640;7.494;2023-12-20T11:37:46;9.50;99.90
39957;DHT22;48483;44.640;7.494;2023-12-20T11:40:18;9.50;99.90
39957;DHT22;48483;44.640;7.494;2023-12-20T11:42:46;9.60;99.90
39957;DHT22;48483;44.640;7.494;2023-12-20T11:45:15;9.60;99.90
39957;DHT22;48483;44.640;7.494;2023-12-20T11:47:43;9.60;99.90
39957;DHT22;48483;44.640;7.494;2023-12-20T11:50:11;9.70;99.90
39957;DHT22;48483;44.640;7.494;2023-12-20T11:52:37;9.70;99.90
39957;DHT22;48483;44.640;7.494;2023-12-20T11:55:05;9.70;99.90
39957;DHT22;48483;44.640;7.494;2023-12-20T11:57:34;9.70;99.90
39957;DHT22;48483;44.640;7.494;2023-12-20T12:00:00;9.70;99.90
39957;DHT22;48483;44.640;7.494;2023-12-20T12:02:28;9.80;99.90
39957;DHT22;48483;44.640;7.494;2023-12-20T12:04:54;9.80;99.90
39957;DHT22;48483;44.640;7.494;2023-12-20T12:07:22;9.80;99.90
39957;DHT22;48483;44.640;7.494;2023-12-20T12:09:49;9.80;99.90
39957;DHT22;48483;44.640;7.494;2023-12-20T12:12:17;9.80;99.90
39957;DHT22;48483;44.640;7.494;2023-12-20T12:14:45;9.80;99.90
39957;DHT22;48483;44.640;7.494;2023-12-20T12:17:13;9.90;99.90
39957;DHT22;48483;44.640;7.494;2023-12-20T12:19:40;9.80;99.90
39957;DHT22;48483;44.640;7.494;2023-12-20T12:22:07;9.90;99.90
39957;DHT22;48483;44.640;7.494;2023-12-20T12:24:36;9.90;99.90
39957;DHT22;48483;44.640;7.494;2023-12-20T12:27:06;9.90;99.90
39957;DHT22;48483;44.640;7.494;2023-12-20T12:29:32;9.90;99.90
39957;DHT22;48483;44.640;7.494;2023-12-20T12:32:02;10.00;99.90
39957;DHT22;48483;44.640;7.494;2023-12-20T12:34:30;10.00;99.90
39957;DHT22;48483;44.640;7.494;2023-12-20T12:36:57;10.00;99.90
39957;DHT22;48483;44.640;7.494;2023-12-20T12:39:24;10.00;99.90
39957;DHT22;48483;44.640;7.494;2023-12-20T12:41:51;10.00;99.90
39957;DHT22;48483;44.640;7.494;2023-12-20T12:44:18;10.00;99.90
39957;DHT22;48483;44.640;7.494;2023-12-20T12:46:46;10.00;99.90
39957;DHT22;48483;44.640;7.494;2023-12-20T12:49:14;10.00;99.90
39957;DHT22;48483;44.640;7.494;2023-12-20T12:51:41;10.10;99.90
39957;DHT22;48483;44.640;7.494;2023-12-20T12:54:08;10.10;99.90
39957;DHT22;48483;44.640;7.494;2023-12-20T12:56:36;10.20;99.90
39957;DHT22;48483;44.640;7.494;2023-12-20T12:59:03;10.20;99.90
39957;DHT22;48483;44.640;7.494;2023-12-20T13:01:29;10.30;99.90
39957;DHT22;48483;44.640;7.494;2023-12-20T13:03:56;10.30;99.90
39957;DHT22;48483;44.640;7.494;2023-12-20T13:06:24;10.40;99.90
39957;DHT22;48483;44.640;7.494;2023-12-20T13:08:51;10.50;99.90
39957;DHT22;48483;44.640;7.494;2023-12-20T13:11:18;10.60;99.90
39957;DHT22;48483;44.640;7.494;2023-12-20T13:13:44;10.60;99.90
39957;DHT22;48483;44.640;7.494;2023-12-20T13:16:11;10.70;99.90
39957;DHT22;48483;44.640;7.494;2023-12-20T13:18:38;10.70;99.90
39957;DHT22;48483;44.640;7.494;2023-12-20T13:21:08;10.80;99.90
39957;DHT22;48483;44.640;7.494;2023-12-20T13:23:37;10.90;99.90
39957;DHT22;48483;44.640;7.494;2023-12-20T13:26:04;10.90;99.90
39957;DHT22;48483;44.640;7.494;2023-12-20T13:28:30;11.00;99.90
39957;DHT22;48483;44.640;7.494;2023-12-20T13:30:57;11.00;99.90
39957;DHT22;48483;44.640;7.494;2023-12-20T13:33:23;11.00;99.90
39957;DHT22;48483;44.640;7.494;2023-12-20T13:35:50;11.00;99.90
39957;DHT22;48483;44.640;7.494;2023-12-20T13:38:17;11.10;99.90
39957;DHT22;48483;44.640;7.494;2023-12-20T13:40:45;11.10;99.90
39957;DHT22;48483;44.640;7.494;2023-12-20T13:43:12;11.10;99.90
39957;DHT22;48483;44.640;7.494;2023-12-20T13:45:39;11.10;99.90
39957;DHT22;48483;44.640;7.494;2023-12-20T13:48:06;11.10;99.90
39957;DHT22;48483;44.640;7.494;2023-12-20T13:50:33;11.20;99.90
39957;DHT22;48483;44.640;7.494;2023-12-20T13:52:59;11.20;99.90
39957;DHT22;48483;44.640;7.494;2023-12-20T13:55:27;11.20;99.90
39957;DHT22;48483;44.640;7.494;2023-12-20T13:57:55;11.20;99.90
39957;DHT22;48483;44.640;7.494;2023-12-20T14:00:22;11.10;99.90
39957;DHT22;48483;44.640;7.494;2023-12-20T14:02:49;11.10;99.90
39957;DHT22;48483;44.640;7.494;2023-12-20T14:05:16;11.10;99.90
39957;DHT22;48483;44.640;7.494;2023-12-20T14:07:44;11.00;99.90
39957;DHT22;48483;44.640;7.494;2023-12-20T14:10:11;11.00;99.90
39957;DHT22;48483;44.640;7.494;2023-12-20T14:12:39;11.00;99.90
39957;DHT22;48483;44.640;7.494;2023-12-20T14:15:08;11.00;99.90
39957;DHT22;48483;44.640;7.494;2023-12-20T14:17:37;11.00;99.90
39957;DHT22;48483;44.640;7.494;2023-12-20T14:20:05;11.00;99.90
39957;DHT22;48483;44.640;7.494;2023-12-20T14:22:33;11.00;99.90
39957;DHT22;48483;44.640;7.494;2023-12-20T14:24:59;11.00;99.90
39957;DHT22;48483;44.640;7.494;2023-12-20T14:27:26;11.10;99.90
39957;DHT22;48483;44.640;7.494;2023-12-20T14:29:54;11.10;99.90
39957;DHT22;48483;44.640;7.494;2023-12-20T14:32:22;11.10;99.90
39957;DHT22;48483;44.640;7.494;2023-12-20T14:34:49;11.10;99.90
39957;DHT22;48483;44.640;7.494;2023-12-20T14:37:15;11.10;99.90
39957;DHT22;48483;44.640;7.494;2023-12-20T14:39:43;11.10;99.90
39957;DHT22;48483;44.640;7.494;2023-12-20T14:42:10;11.00;99.90
39957;DHT22;48483;44.640;7.494;2023-12-20T14:44:40;11.00;99.90
39957;DHT22;48483;44.640;7.494;2023-12-20T14:47:07;10.90;99.90
39957;DHT22;48483;44.640;7.494;2023-12-20T14:49:35;10.80;99.90
39957;DHT22;48483;44.640;7.494;2023-12-20T14:52:03;10.70;99.90
39957;DHT22;48483;44.640;7.494;2023-12-20T14:54:30;10.70;99.90
39957;DHT22;48483;44.640;7.494;2023-12-20T14:56:57;10.70;99.90
39957;DHT22;48483;44.640;7.494;2023-12-20T14:59:24;10.70;99.90
39957;DHT22;48483;44.640;7.494;2023-12-20T15:01:50;10.60;99.90
39957;DHT22;48483;44.640;7.494;2023-12-20T15:04:18;10.60;99.90
39957;DHT22;48483;44.640;7.494;2023-12-20T15:06:46;10.60;99.90
39957;DHT22;48483;44.640;7.494;2023-12-20T15:09:12;10.50;99.90
39957;DHT22;48483;44.640;7.494;2023-12-20T15:11:39;10.40;99.90
39957;DHT22;48483;44.640;7.494;2023-12-20T15:14:06;10.30;99.90
39957;DHT22;48483;44.640;7.494;2023-12-20T15:16:35;10.30;99.90
39957;DHT22;48483;44.640;7.494;2023-12-20T15:19:02;10.20;99.90
39957;DHT22;48483;44.640;7.494;2023-12-20T15:21:29;10.20;99.90
39957;DHT22;48483;44.640;7.494;2023-12-20T15:24:00;10.10;99.90
39957;DHT22;48483;44.640;7.494;2023-12-20T15:26:39;10.00;99.90
39957;DHT22;48483;44.640;7.494;2023-12-20T15:29:06;10.00;99.90
39957;DHT22;48483;44.640;7.494;2023-12-20T15:31:33;9.90;99.90
39957;DHT22;48483;44.640;7.494;2023-12-20T15:34:00;10.00;99.90
39957;DHT22;48483;44.640;7.494;2023-12-20T15:36:27;9.80;99.90
39957;DHT22;48483;44.640;7.494;2023-12-20T15:38:54;9.80;99.90
39957;DHT22;48483;44.640;7.494;2023-12-20T15:41:22;9.80;99.90
39957;DHT22;48483;44.640;7.494;2023-12-20T15:43:50;9.80;99.90